createdAt,value
2022-12-18T00:02:02.788Z,98968.97
2022-12-18T00:04:30.727Z,98967.88
2022-12-18T00:06:57.466Z,98972.16
2022-12-18T00:09:25.209Z,98974.44
2022-12-18T00:11:58.054Z,98970.91
2022-12-18T00:14:24.770Z,98967.47
2022-12-18T00:16:51.618Z,98971.88
2022-12-18T00:19:19.629Z,98970.69
2022-12-18T00:21:46.680Z,98970.91
2022-12-18T00:24:16.224Z,98961.63
2022-12-18T00:26:43.237Z,98965.41
2022-12-18T00:29:14.693Z,98959.59
2022-12-18T00:31:44.212Z,98962.69
2022-12-18T00:34:15.427Z,98968.84
2022-12-18T00:36:44.318Z,98959.94
2022-12-18T00:39:12.040Z,98960.03
2022-12-18T00:41:57.442Z,98961.47
2022-12-18T00:44:24.133Z,98963.28
2022-12-18T00:46:50.895Z,98965.28
2022-12-18T00:49:18.927Z,98973.84
2022-12-18T00:51:48.365Z,98978.72
2022-12-18T00:54:15.387Z,98981.31
2022-12-18T00:56:50.074Z,98982.53
2022-12-18T00:59:17.571Z,98981.66
2022-12-18T01:01:44.508Z,98983.81
2022-12-18T01:04:12.632Z,98981.09
2022-12-18T01:06:39.303Z,98976.53
2022-12-18T01:09:08.224Z,98970.03
2022-12-18T01:11:35.017Z,98973.25
2022-12-18T01:14:01.893Z,98990.91
2022-12-18T01:16:28.918Z,98990.06
2022-12-18T01:18:56.155Z,98987.88
2022-12-18T01:21:25.089Z,98992.31
2022-12-18T01:23:56.439Z,98999.44
2022-12-18T01:26:26.146Z,99007.97
2022-12-18T01:28:54.779Z,98995.38
2022-12-18T01:31:23.684Z,99015.28
2022-12-18T01:33:51.550Z,99028.06
2022-12-18T01:36:20.285Z,99017.63
2022-12-18T01:38:48.363Z,99021.88
2022-12-18T01:41:15.656Z,99009.78
2022-12-18T01:43:46.285Z,99008.47
2022-12-18T01:46:13.191Z,99008.72
2022-12-18T01:48:40.780Z,98988.19
2022-12-18T01:51:10.560Z,98986.16
2022-12-18T01:53:38.396Z,98989.50
2022-12-18T01:56:05.819Z,98990.28
2022-12-18T01:58:41.570Z,98995.00
2022-12-18T02:01:10.251Z,98995.28
2022-12-18T02:03:37.657Z,98988.00
2022-12-18T02:06:11.644Z,98987.78
2022-12-18T02:08:42.621Z,98986.38
2022-12-18T02:11:16.289Z,98986.25
2022-12-18T02:13:47.028Z,98984.84
2022-12-18T02:16:22.667Z,98987.91
2022-12-18T02:18:55.124Z,98978.41
2022-12-18T02:21:31.751Z,98981.47
2022-12-18T02:24:17.586Z,98983.81
2022-12-18T02:26:49.861Z,98973.38
2022-12-18T02:29:21.474Z,98973.09
2022-12-18T02:31:52.856Z,98976.88
2022-12-18T02:34:22.364Z,98978.66
2022-12-18T02:36:50.868Z,98977.81
2022-12-18T02:39:18.736Z,98984.13
2022-12-18T02:41:47.765Z,98983.66
2022-12-18T02:44:15.424Z,98983.66
2022-12-18T02:46:45.074Z,98991.56
2022-12-18T02:49:23.774Z,98983.16
2022-12-18T02:51:54.763Z,98988.97
2022-12-18T02:54:32.977Z,98976.38
2022-12-18T02:57:10.709Z,98989.66
2022-12-18T02:59:43.087Z,98980.59
2022-12-18T03:02:21.816Z,98986.31
2022-12-18T03:04:57.472Z,98997.69
2022-12-18T03:07:40.171Z,98991.66
2022-12-18T03:10:09.867Z,98990.91
2022-12-18T03:12:42.025Z,98979.44
2022-12-18T03:15:17.439Z,98979.13
2022-12-18T03:17:50.306Z,98986.88
2022-12-18T03:20:22.624Z,98980.38
2022-12-18T03:22:54.532Z,98983.22
2022-12-18T03:25:22.513Z,98981.41
2022-12-18T03:27:57.381Z,98969.94
2022-12-18T03:30:24.422Z,98971.69
2022-12-18T03:33:00.359Z,98971.31
2022-12-18T03:35:34.806Z,98971.22
2022-12-18T03:38:01.756Z,98973.09
2022-12-18T03:40:36.315Z,98967.56
2022-12-18T03:43:11.357Z,98966.00
2022-12-18T03:45:42.930Z,98965.28
2022-12-18T03:48:18.663Z,98969.88
2022-12-18T03:50:50.526Z,98967.94
2022-12-18T03:53:29.952Z,98970.78
2022-12-18T03:55:58.593Z,98974.19
2022-12-18T03:58:28.191Z,98977.97
2022-12-18T04:00:58.055Z,98987.78
2022-12-18T04:03:26.924Z,98987.34
2022-12-18T04:05:56.455Z,98978.31
2022-12-18T04:08:24.907Z,98971.63
2022-12-18T04:10:51.588Z,98969.63
2022-12-18T04:13:23.068Z,98966.00
2022-12-18T04:15:51.253Z,98974.03
2022-12-18T04:18:17.937Z,98958.59
2022-12-18T04:20:44.537Z,98968.09
2022-12-18T04:23:11.193Z,98958.28
2022-12-18T04:25:37.953Z,98960.78
2022-12-18T04:28:04.827Z,98956.97
2022-12-18T04:30:31.512Z,98960.06
2022-12-18T04:32:59.623Z,98963.59
2022-12-18T04:35:26.338Z,98960.19
2022-12-18T04:37:53.087Z,98966.63
2022-12-18T04:40:19.810Z,98960.19
2022-12-18T04:42:46.561Z,98954.34
2022-12-18T04:45:13.311Z,98949.22
2022-12-18T04:47:40.025Z,98954.13
2022-12-18T04:50:08.839Z,98951.63
2022-12-18T04:52:35.427Z,98953.28
2022-12-18T04:55:02.102Z,98948.91
2022-12-18T04:57:28.888Z,98947.03
2022-12-18T04:59:55.619Z,98940.91
2022-12-18T05:02:22.389Z,98949.47
2022-12-18T05:04:49.118Z,98949.13
2022-12-18T05:07:17.248Z,98947.22
2022-12-18T05:09:43.926Z,98956.50
2022-12-18T05:12:11.788Z,98952.84
2022-12-18T05:14:38.458Z,98960.34
2022-12-18T05:17:05.132Z,98960.22
2022-12-18T05:19:31.696Z,98962.06
2022-12-18T05:21:58.592Z,98961.78
2022-12-18T05:24:26.641Z,98971.88
2022-12-18T05:26:53.327Z,98965.72
2022-12-18T05:29:19.990Z,98967.16
2022-12-18T05:31:46.623Z,98970.28
2022-12-18T05:34:13.538Z,98964.78
2022-12-18T05:36:40.773Z,98967.59
2022-12-18T05:39:08.024Z,98962.88
2022-12-18T05:41:36.115Z,98956.88
2022-12-18T05:44:02.950Z,98957.06
2022-12-18T05:46:30.491Z,98953.03
2022-12-18T05:49:00.743Z,98950.53
2022-12-18T05:51:27.943Z,98960.19
2022-12-18T05:53:54.652Z,98959.38
2022-12-18T05:56:22.922Z,98952.41
2022-12-18T05:58:54.968Z,98944.31
2022-12-18T06:01:23.896Z,98955.59
2022-12-18T06:03:50.657Z,98947.41
2022-12-18T06:06:19.977Z,98952.72
2022-12-18T06:08:47.342Z,98959.34
2022-12-18T06:11:14.306Z,98963.44
2022-12-18T06:13:41.234Z,98965.69
2022-12-18T06:16:09.600Z,98966.38
2022-12-18T06:18:39.498Z,98965.47
2022-12-18T06:21:06.458Z,98961.59
2022-12-18T06:23:39.225Z,98951.28
2022-12-18T06:26:06.915Z,98958.47
2022-12-18T06:28:33.484Z,98952.44
2022-12-18T06:31:00.187Z,98956.06
2022-12-18T06:33:29.211Z,98953.81
2022-12-18T06:36:01.171Z,98962.66
2022-12-18T06:38:28.188Z,98959.19
2022-12-18T06:40:54.818Z,98964.25
2022-12-18T06:43:21.480Z,98966.91
2022-12-18T06:45:53.577Z,98970.59
2022-12-18T06:48:20.902Z,98972.16
2022-12-18T06:50:49.018Z,98980.28
2022-12-18T06:53:15.764Z,98989.97
2022-12-18T06:55:42.420Z,98979.75
2022-12-18T06:58:09.344Z,98985.84
2022-12-18T07:00:38.165Z,98989.72
2022-12-18T07:03:04.944Z,98989.72
2022-12-18T07:05:31.760Z,98995.81
2022-12-18T07:08:00.015Z,98993.88
2022-12-18T07:10:27.295Z,98994.16
2022-12-18T07:12:53.973Z,98999.53
2022-12-18T07:15:20.686Z,98997.03
2022-12-18T07:17:47.686Z,98993.69
2022-12-18T07:20:14.323Z,98991.44
2022-12-18T07:22:41.025Z,98989.91
2022-12-18T07:25:09.720Z,98973.88
2022-12-18T07:27:36.392Z,98983.38
2022-12-18T07:30:03.600Z,98972.97
2022-12-18T07:32:31.516Z,98971.31
2022-12-18T07:34:58.090Z,98976.56
2022-12-18T07:37:24.709Z,98979.63
2022-12-18T07:39:51.275Z,98981.25
2022-12-18T07:42:31.480Z,98982.53
2022-12-18T07:44:58.380Z,98980.59
2022-12-18T07:47:25.961Z,98977.47
2022-12-18T07:49:52.705Z,98980.94
2022-12-18T07:52:24.302Z,98975.22
2022-12-18T07:54:52.850Z,98990.50
2022-12-18T07:57:49.022Z,98982.88
2022-12-18T08:00:09.034Z,98982.38
2022-12-18T08:02:35.729Z,98974.25
2022-12-18T08:05:02.595Z,98977.84
2022-12-18T08:07:29.225Z,98982.00
2022-12-18T08:09:55.867Z,98971.84
2022-12-18T08:12:24.073Z,98976.41
2022-12-18T08:14:50.732Z,98969.44
2022-12-18T08:17:17.405Z,98968.41
2022-12-18T08:19:44.531Z,98972.28
2022-12-18T08:22:11.121Z,98969.84
2022-12-18T08:24:37.821Z,98976.78
2022-12-18T08:29:52.770Z,98970.81
2022-12-18T08:32:19.702Z,98963.72
2022-12-18T08:34:46.402Z,98962.84
2022-12-18T08:37:13.464Z,98964.88
2022-12-18T08:39:40.076Z,98956.44
2022-12-18T08:42:25.565Z,98947.56
2022-12-18T08:44:53.591Z,98948.38
2022-12-18T08:47:20.291Z,98947.03
2022-12-18T08:49:47.021Z,98937.84
2022-12-18T08:52:13.849Z,98938.00
2022-12-18T08:54:40.477Z,98934.22
2022-12-18T08:57:07.689Z,98927.78
2022-12-18T08:59:34.531Z,98935.25
2022-12-18T09:02:02.800Z,98930.66
2022-12-18T09:04:29.601Z,98924.03
2022-12-18T09:06:56.273Z,98923.22
2022-12-18T09:09:22.987Z,98928.13
2022-12-18T09:11:51.934Z,98926.63
2022-12-18T09:14:18.777Z,98932.72
2022-12-18T09:16:45.628Z,98922.88
2022-12-18T09:19:13.803Z,98937.88
2022-12-18T09:21:46.091Z,98943.97
2022-12-18T09:24:15.597Z,98935.25
2022-12-18T09:26:43.465Z,98935.41
2022-12-18T09:29:14.501Z,98936.97
2022-12-18T09:31:41.642Z,98934.69
2022-12-18T09:34:08.637Z,98941.53
2022-12-18T09:36:36.807Z,98936.84
2022-12-18T09:39:08.126Z,98937.78
2022-12-18T09:41:45.181Z,98949.91
2022-12-18T09:44:18.336Z,98953.06
2022-12-18T09:46:51.274Z,98940.56
2022-12-18T09:49:22.967Z,98946.25
2022-12-18T09:51:55.699Z,98955.09
2022-12-18T09:54:26.471Z,98955.59
2022-12-18T09:56:54.268Z,98953.13
2022-12-18T09:59:25.748Z,98953.53
2022-12-18T10:01:52.687Z,98956.13
2022-12-18T10:04:19.795Z,98956.63
2022-12-18T10:06:54.137Z,98963.06
2022-12-18T10:09:28.221Z,98962.03
2022-12-18T10:12:04.556Z,98961.13
2022-12-18T10:14:42.017Z,98961.00
2022-12-18T10:17:19.720Z,98962.03
2022-12-18T10:19:51.769Z,98948.94
2022-12-18T10:22:36.876Z,98945.22
2022-12-18T10:25:18.024Z,98940.66
2022-12-18T10:27:44.958Z,98938.72
2022-12-18T10:30:15.864Z,98931.16
2022-12-18T10:32:45.895Z,98933.31
2022-12-18T10:35:20.039Z,98940.06
2022-12-18T10:38:22.581Z,98938.22
2022-12-18T10:40:52.209Z,98943.91
2022-12-18T10:43:24.286Z,98950.16
2022-12-18T10:46:06.557Z,98948.00
2022-12-18T10:48:37.423Z,98947.13
2022-12-18T10:51:13.333Z,98949.19
2022-12-18T10:53:45.504Z,98951.72
2022-12-18T10:56:13.220Z,98946.72
2022-12-18T10:58:41.096Z,98959.38
2022-12-18T11:01:11.827Z,98959.56
2022-12-18T11:03:41.997Z,98961.34
2022-12-18T11:06:12.020Z,98953.88
2022-12-18T11:08:39.720Z,98952.31
2022-12-18T11:11:21.161Z,98949.03
2022-12-18T11:13:58.519Z,98934.09
2022-12-18T11:16:28.630Z,98942.00
2022-12-18T11:18:56.699Z,98935.88
2022-12-18T11:21:23.689Z,98929.34
2022-12-18T11:23:52.563Z,98926.88
2022-12-18T11:26:22.597Z,98922.56
2022-12-18T11:28:52.799Z,98922.50
2022-12-18T11:31:27.477Z,98917.13
2022-12-18T11:36:49.578Z,98916.47
2022-12-18T11:39:20.477Z,98909.56
2022-12-18T11:42:12.682Z,98907.66
2022-12-18T11:44:46.774Z,98914.88
2022-12-18T11:47:18.319Z,98912.44
2022-12-18T11:49:51.248Z,98908.34
2022-12-18T11:52:20.940Z,98901.84
2022-12-18T11:54:52.768Z,98907.50
2022-12-18T11:57:35.904Z,98909.75
2022-12-18T12:00:12.157Z,98898.88
2022-12-18T12:03:07.971Z,98907.22
2022-12-18T12:05:48.556Z,98911.81
2022-12-18T12:08:24.028Z,98916.84
2022-12-18T12:11:02.141Z,98918.88
2022-12-18T12:13:44.246Z,98918.72
2022-12-18T12:16:19.303Z,98922.88
2022-12-18T12:18:59.763Z,98918.81
2022-12-18T12:21:34.268Z,98924.84
2022-12-18T12:24:09.041Z,98925.44
2022-12-18T12:26:46.167Z,98920.81
2022-12-18T12:29:32.089Z,98917.22
2022-12-18T12:32:13.276Z,98917.53
2022-12-18T12:34:52.665Z,98909.41
2022-12-18T12:37:38.215Z,98896.16
2022-12-18T12:40:26.811Z,98875.63
2022-12-18T12:43:16.131Z,98871.47
2022-12-18T12:45:50.228Z,98883.38
2022-12-18T12:48:25.568Z,98882.25
2022-12-18T12:50:54.483Z,98894.72
2022-12-18T12:53:28.070Z,98896.44
2022-12-18T12:55:55.775Z,98889.13
2022-12-18T12:58:33.276Z,98902.28
2022-12-18T13:01:18.476Z,98894.53
2022-12-18T13:03:59.681Z,98894.84
2022-12-18T13:09:26.138Z,98903.13
2022-12-18T13:12:11.553Z,98903.50
2022-12-18T13:14:41.062Z,98898.53
2022-12-18T13:17:34.376Z,98889.31
2022-12-18T13:20:12.169Z,98890.28
2022-12-18T13:22:43.016Z,98899.47
2022-12-18T13:25:30.263Z,98886.66
2022-12-18T13:28:02.839Z,98893.28
2022-12-18T13:30:50.863Z,98896.63
2022-12-18T13:34:23.908Z,98902.69
2022-12-18T13:36:34.515Z,98904.19
2022-12-18T13:39:30.238Z,98892.97
2022-12-18T13:42:55.544Z,98896.88
2022-12-18T13:45:46.632Z,98911.81
2022-12-18T13:48:19.516Z,98907.34
2022-12-18T13:50:54.038Z,98889.56
2022-12-18T13:53:24.548Z,98887.59
2022-12-18T13:55:52.714Z,98877.88
2022-12-18T13:58:20.126Z,98875.78
2022-12-18T14:00:47.034Z,98869.22
2022-12-18T14:03:22.452Z,98878.38
2022-12-18T14:05:57.184Z,98867.84
2022-12-18T14:08:35.913Z,98877.09
2022-12-18T14:11:05.320Z,98879.72
2022-12-18T14:13:35.535Z,98881.63
2022-12-18T14:16:04.515Z,98888.72
2022-12-18T14:18:40.233Z,98892.38
2022-12-18T14:21:19.393Z,98884.72
2022-12-18T14:23:46.397Z,98891.03
2022-12-18T14:26:25.519Z,98889.81
2022-12-18T14:28:52.563Z,98879.59
2022-12-18T14:31:20.716Z,98882.34
2022-12-18T14:33:47.611Z,98887.88
2022-12-18T14:36:19.568Z,98884.44
2022-12-18T14:38:50.850Z,98892.38
2022-12-18T14:41:19.698Z,98888.41
2022-12-18T14:43:49.082Z,98887.00
2022-12-18T14:46:35.527Z,98895.44
2022-12-18T14:49:05.516Z,98892.34
2022-12-18T14:51:35.319Z,98896.34
2022-12-18T14:54:04.686Z,98890.25
2022-12-18T14:56:34.401Z,98882.88
2022-12-18T14:59:03.129Z,98880.19
2022-12-18T15:01:33.770Z,98880.13
2022-12-18T15:04:02.636Z,98884.59
2022-12-18T15:06:35.041Z,98872.50
2022-12-18T15:09:04.440Z,98876.63
2022-12-18T15:11:47.218Z,98877.47
2022-12-18T15:14:35.991Z,98871.47
2022-12-18T15:17:06.869Z,98876.44
2022-12-18T15:19:38.459Z,98871.63
2022-12-18T15:22:25.979Z,98867.88
2022-12-18T15:24:53.445Z,98868.03
2022-12-18T15:27:22.978Z,98865.66
2022-12-18T15:30:02.175Z,98870.66
2022-12-18T15:32:28.945Z,98876.66
2022-12-18T15:35:04.309Z,98860.34
2022-12-18T15:37:32.336Z,98850.78
2022-12-18T15:39:59.058Z,98850.78
2022-12-18T15:42:44.469Z,98844.03
2022-12-18T15:45:13.875Z,98846.44
2022-12-18T15:47:40.922Z,98854.63
2022-12-18T15:50:08.817Z,98847.78
2022-12-18T15:52:40.722Z,98842.31
2022-12-18T15:55:31.216Z,98846.72
2022-12-18T15:57:58.029Z,98829.28
2022-12-18T16:00:24.789Z,98830.25
2022-12-18T16:02:51.828Z,98832.88
2022-12-18T16:05:21.213Z,98835.22
2022-12-18T16:07:49.568Z,98830.66
2022-12-18T16:10:16.679Z,98838.84
2022-12-18T16:12:43.884Z,98838.38
2022-12-18T16:15:15.316Z,98837.56
2022-12-18T16:17:44.768Z,98830.66
2022-12-18T16:20:15.983Z,98824.47
2022-12-18T16:22:47.246Z,98821.69
2022-12-18T16:25:20.180Z,98817.94
2022-12-18T16:27:47.071Z,98817.59
2022-12-18T16:30:16.348Z,98811.88
2022-12-18T16:32:43.334Z,98806.50
2022-12-18T16:35:12.304Z,98801.06
2022-12-18T16:37:39.405Z,98786.41
2022-12-18T16:40:10.934Z,98787.28
2022-12-18T16:42:41.303Z,98788.78
2022-12-18T16:45:10.850Z,98789.75
2022-12-18T16:47:37.955Z,98791.41
2022-12-18T16:50:05.950Z,98789.75
2022-12-18T16:52:42.785Z,98787.97
2022-12-18T16:55:10.041Z,98787.50
2022-12-18T16:57:37.651Z,98800.06
2022-12-18T17:00:06.289Z,98784.91
2022-12-18T17:02:33.759Z,98790.56
2022-12-18T17:05:01.209Z,98780.53
2022-12-18T17:07:28.991Z,98785.34
2022-12-18T17:10:06.892Z,98776.78
2022-12-18T17:12:34.498Z,98776.59
2022-12-18T17:15:01.174Z,98772.38
2022-12-18T17:17:28.014Z,98775.50
2022-12-18T17:19:57.487Z,98782.00
2022-12-18T17:22:24.256Z,98779.34
2022-12-18T17:24:51.227Z,98790.63
2022-12-18T17:27:21.971Z,98781.22
2022-12-18T17:29:49.220Z,98779.53
2022-12-18T17:32:16.237Z,98783.47
2022-12-18T17:34:42.984Z,98784.28
2022-12-18T17:37:09.696Z,98779.84
2022-12-18T17:39:36.619Z,98760.56
2022-12-18T17:42:03.833Z,98777.22
2022-12-18T17:44:34.442Z,98771.63
2022-12-18T17:47:01.415Z,98763.34
2022-12-18T17:49:28.580Z,98766.00
2022-12-18T17:51:55.389Z,98769.63
2022-12-18T17:54:22.271Z,98767.28
2022-12-18T17:56:49.067Z,98766.00
2022-12-18T17:59:16.460Z,98775.09
2022-12-18T18:01:45.622Z,98771.50
2022-12-18T18:04:13.226Z,98765.06
2022-12-18T18:06:39.991Z,98770.50
2022-12-18T18:09:06.742Z,98770.84
2022-12-18T18:12:01.375Z,98763.63
2022-12-18T18:14:28.433Z,98775.63
2022-12-18T18:16:56.525Z,98771.88
2022-12-18T18:19:25.874Z,98753.53
2022-12-18T18:21:53.691Z,98748.78
2022-12-18T18:24:23.705Z,98754.94
2022-12-18T18:26:50.949Z,98748.53
2022-12-18T18:29:21.620Z,98761.22
2022-12-18T18:31:48.833Z,98755.78
2022-12-18T18:34:18.274Z,98752.97
2022-12-18T18:36:46.208Z,98753.31
2022-12-18T18:39:13.663Z,98754.78
2022-12-18T18:41:40.487Z,98739.09
2022-12-18T18:44:10.085Z,98744.88
2022-12-18T18:46:36.818Z,98740.13
2022-12-18T18:49:04.038Z,98737.84
2022-12-18T18:51:35.014Z,98747.91
2022-12-18T18:54:02.526Z,98729.63
2022-12-18T18:59:16.070Z,98726.28
2022-12-18T19:01:43.208Z,98730.25
2022-12-18T19:04:10.842Z,98711.94
2022-12-18T19:06:39.704Z,98715.22
2022-12-18T19:09:07.416Z,98715.91
2022-12-18T19:11:52.831Z,98711.44
2022-12-18T19:14:20.321Z,98694.94
2022-12-18T19:16:46.951Z,98694.78
2022-12-18T19:19:13.742Z,98717.06
2022-12-18T19:21:41.893Z,98698.94
2022-12-18T19:24:10.257Z,98699.75
2022-12-18T19:26:37.521Z,98698.63
2022-12-18T19:29:05.897Z,98699.94
2022-12-18T19:31:36.013Z,98707.66
2022-12-18T19:34:04.181Z,98700.91
2022-12-18T19:36:32.299Z,98699.44
2022-12-18T19:39:01.995Z,98701.75
2022-12-18T19:41:32.830Z,98700.25
2022-12-18T19:43:59.921Z,98693.47
2022-12-18T19:46:28.282Z,98692.34
2022-12-18T19:48:55.017Z,98685.06
2022-12-18T19:51:24.939Z,98687.56
2022-12-18T19:53:58.150Z,98695.13
2022-12-18T19:56:27.963Z,98683.41
2022-12-18T19:58:55.347Z,98686.06
2022-12-18T20:01:24.884Z,98685.06
2022-12-18T20:03:54.509Z,98683.91
2022-12-18T20:06:28.045Z,98685.22
2022-12-18T20:09:00.699Z,98685.41
2022-12-18T20:11:33.391Z,98686.22
2022-12-18T20:14:04.378Z,98675.81
2022-12-18T20:16:31.256Z,98677.78
2022-12-18T20:19:01.350Z,98687.03
2022-12-18T20:21:29.495Z,98681.94
2022-12-18T20:23:56.342Z,98687.03
2022-12-18T20:26:23.167Z,98688.69
2022-12-18T20:28:51.785Z,98681.28
2022-12-18T20:31:18.582Z,98692.31
2022-12-18T20:33:47.699Z,98685.06
2022-12-18T20:36:21.221Z,98689.00
2022-12-18T20:38:50.178Z,98689.34
2022-12-18T20:41:19.411Z,98682.41
2022-12-18T20:43:46.478Z,98682.06
2022-12-18T20:46:16.810Z,98673.03
2022-12-18T20:48:45.129Z,98678.94
2022-12-18T20:51:14.545Z,98671.84
2022-12-18T20:53:42.081Z,98668.56
2022-12-18T20:56:11.899Z,98667.25
2022-12-18T20:58:38.844Z,98664.44
2022-12-18T21:01:08.081Z,98647.13
2022-12-18T21:03:36.900Z,98649.78
2022-12-18T21:06:04.434Z,98638.09
2022-12-18T21:08:31.842Z,98643.66
2022-12-18T21:11:32.465Z,98653.75
2022-12-18T21:13:59.977Z,98661.97
2022-12-18T21:16:27.195Z,98659.66
2022-12-18T21:18:55.321Z,98649.28
2022-12-18T21:21:26.535Z,98648.47
2022-12-18T21:23:53.735Z,98647.47
2022-12-18T21:26:23.431Z,98648.47
2022-12-18T21:28:54.210Z,98657.88
2022-12-18T21:31:22.499Z,98658.03
2022-12-18T21:33:49.268Z,98666.94
2022-12-18T21:36:20.098Z,98665.13
2022-12-18T21:38:46.847Z,98659.34
2022-12-18T21:41:36.302Z,98652.75
2022-12-18T21:44:05.706Z,98654.41
2022-12-18T21:46:33.253Z,98656.03
2022-12-18T21:49:00.522Z,98648.47
2022-12-18T21:51:28.828Z,98651.59
2022-12-18T21:53:55.584Z,98649.59
2022-12-18T21:56:22.407Z,98645.81
2022-12-18T21:58:55.397Z,98647.13
2022-12-18T22:01:23.870Z,98638.72
2022-12-18T22:03:50.625Z,98634.44
2022-12-18T22:06:17.384Z,98630.97
2022-12-18T22:08:45.498Z,98630.00
2022-12-18T22:11:13.163Z,98624.38
2022-12-18T22:13:39.872Z,98624.72
2022-12-18T22:16:07.210Z,98618.09
2022-12-18T22:18:33.907Z,98624.88
2022-12-18T22:21:01.566Z,98627.34
2022-12-18T22:23:28.340Z,98635.94
2022-12-18T22:25:56.971Z,98633.94
2022-12-18T22:28:42.351Z,98643.53
2022-12-18T22:31:09.730Z,98648.78
2022-12-18T22:33:36.373Z,98639.22
2022-12-18T22:36:07.373Z,98640.53
2022-12-18T22:38:34.398Z,98643.00
2022-12-18T22:41:02.383Z,98635.94
2022-12-18T22:43:29.187Z,98643.19
2022-12-18T22:45:55.905Z,98635.09
2022-12-18T22:48:22.781Z,98614.31
2022-12-18T22:50:49.591Z,98636.56
2022-12-18T22:53:17.751Z,98629.00
2022-12-18T22:55:44.428Z,98628.50
2022-12-18T22:58:12.353Z,98635.75
2022-12-18T23:00:39.987Z,98630.31
2022-12-18T23:03:07.143Z,98635.41
2022-12-18T23:05:34.048Z,98635.28
2022-12-18T23:08:00.797Z,98625.72
2022-12-18T23:10:27.897Z,98635.28
2022-12-18T23:12:54.518Z,98636.25
2022-12-18T23:15:23.539Z,98625.34
2022-12-18T23:17:56.123Z,98632.28
2022-12-18T23:20:22.727Z,98627.69
2022-12-18T23:22:49.368Z,98610.00
2022-12-18T23:25:16.173Z,98609.88
2022-12-18T23:27:42.862Z,98614.47
2022-12-18T23:30:10.654Z,98611.19
2022-12-18T23:32:38.893Z,98607.72
2022-12-18T23:35:06.720Z,98608.22
2022-12-18T23:37:58.296Z,98608.84
2022-12-18T23:40:22.063Z,98604.91
2022-12-18T23:42:48.718Z,98598.16
2022-12-18T23:45:15.879Z,98598.97
2022-12-18T23:47:51.007Z,98595.03
2022-12-18T23:50:18.162Z,98583.81
2022-12-18T23:52:44.799Z,98574.88
2022-12-18T23:55:11.416Z,98564.97
2022-12-18T23:57:38.062Z,98568.47
